sensor_id;sensor_type;location;lat;lon;timestamp;temperature;humidity
41592;DHT22;28026;48.562;14.440;2022-10-16T00:01:50;12.10;99.90
41592;DHT22;28026;48.562;14.440;2022-10-16T00:04:21;12.10;99.90
41592;DHT22;28026;48.562;14.440;2022-10-16T00:06:52;12.00;99.90
41592;DHT22;28026;48.562;14.440;2022-10-16T00:09:23;12.00;99.90
41592;DHT22;28026;48.562;14.440;2022-10-16T00:11:54;12.10;99.90
41592;DHT22;28026;48.562;14.440;2022-10-16T00:14:25;12.10;99.90
41592;DHT22;28026;48.562;14.440;2022-10-16T00:16:55;12.10;99.90
41592;DHT22;28026;48.562;14.440;2022-10-16T00:19:26;12.10;99.90
41592;DHT22;28026;48.562;14.440;2022-10-16T00:21:57;12.00;99.90
41592;DHT22;28026;48.562;14.440;2022-10-16T00:24:28;12.00;99.90
41592;DHT22;28026;48.562;14.440;2022-10-16T00:26:59;12.00;99.90
41592;DHT22;28026;48.562;14.440;2022-10-16T00:29:30;11.90;99.90
41592;DHT22;28026;48.562;14.440;2022-10-16T00:32:00;11.90;99.90
41592;DHT22;28026;48.562;14.440;2022-10-16T00:34:31;11.90;99.90
41592;DHT22;28026;48.562;14.440;2022-10-16T00:37:02;11.90;99.90
41592;DHT22;28026;48.562;14.440;2022-10-16T00:39:34;11.80;99.90
41592;DHT22;28026;48.562;14.440;2022-10-16T00:42:06;11.80;99.90
41592;DHT22;28026;48.562;14.440;2022-10-16T00:47:39;11.90;99.90
41592;DHT22;28026;48.562;14.440;2022-10-16T00:50:28;11.90;99.90
41592;DHT22;28026;48.562;14.440;2022-10-16T00:53:05;12.00;99.90
41592;DHT22;28026;48.562;14.440;2022-10-16T00:55:36;12.00;99.90
41592;DHT22;28026;48.562;14.440;2022-10-16T00:58:07;12.10;99.90
41592;DHT22;28026;48.562;14.440;2022-10-16T01:00:38;12.10;99.90
41592;DHT22;28026;48.562;14.440;2022-10-16T01:09:37;11.90;99.90
41592;DHT22;28026;48.562;14.440;2022-10-16T01:15:42;11.70;99.90
41592;DHT22;28026;48.562;14.440;2022-10-16T01:18:50;11.70;99.90
41592;DHT22;28026;48.562;14.440;2022-10-16T01:21:36;11.80;99.90
41592;DHT22;28026;48.562;14.440;2022-10-16T01:27:28;11.80;99.90
41592;DHT22;28026;48.562;14.440;2022-10-16T01:32:56;11.80;99.90
41592;DHT22;28026;48.562;14.440;2022-10-16T01:35:59;11.80;99.90
41592;DHT22;28026;48.562;14.440;2022-10-16T01:38:41;11.70;99.90
41592;DHT22;28026;48.562;14.440;2022-10-16T01:41:23;11.70;99.90
41592;DHT22;28026;48.562;14.440;2022-10-16T01:44:05;11.70;99.90
41592;DHT22;28026;48.562;14.440;2022-10-16T01:46:46;11.70;99.90
41592;DHT22;28026;48.562;14.440;2022-10-16T01:49:22;11.80;99.90
41592;DHT22;28026;48.562;14.440;2022-10-16T01:51:59;11.80;99.90
41592;DHT22;28026;48.562;14.440;2022-10-16T01:54:37;11.80;99.90
41592;DHT22;28026;48.562;14.440;2022-10-16T01:57:14;11.80;99.90
41592;DHT22;28026;48.562;14.440;2022-10-16T01:59:51;11.80;99.90
41592;DHT22;28026;48.562;14.440;2022-10-16T02:02:31;11.80;99.90
41592;DHT22;28026;48.562;14.440;2022-10-16T02:05:13;11.80;99.90
41592;DHT22;28026;48.562;14.440;2022-10-16T02:08:03;11.90;99.90
41592;DHT22;28026;48.562;14.440;2022-10-16T02:10:36;11.80;99.90
41592;DHT22;28026;48.562;14.440;2022-10-16T02:13:19;11.80;99.90
41592;DHT22;28026;48.562;14.440;2022-10-16T02:15:58;11.80;99.90
41592;DHT22;28026;48.562;14.440;2022-10-16T02:18:29;11.70;99.90
41592;DHT22;28026;48.562;14.440;2022-10-16T02:21:22;11.70;99.90
41592;DHT22;28026;48.562;14.440;2022-10-16T02:24:08;11.60;99.90
41592;DHT22;28026;48.562;14.440;2022-10-16T02:26:58;11.60;99.90
41592;DHT22;28026;48.562;14.440;2022-10-16T02:29:40;11.70;99.90
41592;DHT22;28026;48.562;14.440;2022-10-16T02:32:23;11.60;99.90
41592;DHT22;28026;48.562;14.440;2022-10-16T02:35:03;11.60;99.90
41592;DHT22;28026;48.562;14.440;2022-10-16T02:37:38;11.60;99.90
41592;DHT22;28026;48.562;14.440;2022-10-16T02:40:12;11.60;99.90
41592;DHT22;28026;48.562;14.440;2022-10-16T02:42:44;11.50;99.90
41592;DHT22;28026;48.562;14.440;2022-10-16T02:45:15;11.50;99.90
41592;DHT22;28026;48.562;14.440;2022-10-16T02:47:46;11.60;99.90
41592;DHT22;28026;48.562;14.440;2022-10-16T02:50:17;11.60;99.90
41592;DHT22;28026;48.562;14.440;2022-10-16T02:52:48;11.70;99.90
41592;DHT22;28026;48.562;14.440;2022-10-16T02:55:19;11.60;99.90
41592;DHT22;28026;48.562;14.440;2022-10-16T02:57:50;11.60;99.90
41592;DHT22;28026;48.562;14.440;2022-10-16T03:00:21;11.60;99.90
41592;DHT22;28026;48.562;14.440;2022-10-16T03:02:52;11.60;99.90
41592;DHT22;28026;48.562;14.440;2022-10-16T03:05:23;11.60;99.90
41592;DHT22;28026;48.562;14.440;2022-10-16T03:07:54;11.60;99.90
41592;DHT22;28026;48.562;14.440;2022-10-16T03:10:26;11.70;99.90
41592;DHT22;28026;48.562;14.440;2022-10-16T03:12:57;11.60;99.90
41592;DHT22;28026;48.562;14.440;2022-10-16T03:15:28;11.60;99.90
41592;DHT22;28026;48.562;14.440;2022-10-16T03:17:59;11.60;99.90
41592;DHT22;28026;48.562;14.440;2022-10-16T03:20:30;11.50;99.90
41592;DHT22;28026;48.562;14.440;2022-10-16T03:23:01;11.50;99.90
41592;DHT22;28026;48.562;14.440;2022-10-16T03:25:33;11.50;99.90
41592;DHT22;28026;48.562;14.440;2022-10-16T03:28:04;11.50;99.90
41592;DHT22;28026;48.562;14.440;2022-10-16T03:30:35;11.50;99.90
41592;DHT22;28026;48.562;14.440;2022-10-16T03:33:06;11.50;99.90
41592;DHT22;28026;48.562;14.440;2022-10-16T03:35:37;11.50;99.90
41592;DHT22;28026;48.562;14.440;2022-10-16T03:38:08;11.50;99.90
41592;DHT22;28026;48.562;14.440;2022-10-16T03:40:39;11.50;99.90
41592;DHT22;28026;48.562;14.440;2022-10-16T03:43:09;11.50;99.90
41592;DHT22;28026;48.562;14.440;2022-10-16T03:45:40;11.50;99.90
41592;DHT22;28026;48.562;14.440;2022-10-16T03:48:11;11.50;99.90
41592;DHT22;28026;48.562;14.440;2022-10-16T03:50:42;11.60;99.90
41592;DHT22;28026;48.562;14.440;2022-10-16T03:53:14;11.50;99.90
41592;DHT22;28026;48.562;14.440;2022-10-16T03:55:45;11.50;99.90
41592;DHT22;28026;48.562;14.440;2022-10-16T03:58:16;11.50;99.90
41592;DHT22;28026;48.562;14.440;2022-10-16T04:00:47;11.50;99.90
41592;DHT22;28026;48.562;14.440;2022-10-16T04:03:18;11.50;99.90
41592;DHT22;28026;48.562;14.440;2022-10-16T04:05:50;11.50;99.90
41592;DHT22;28026;48.562;14.440;2022-10-16T04:08:21;11.50;99.90
41592;DHT22;28026;48.562;14.440;2022-10-16T04:10:52;11.50;99.90
41592;DHT22;28026;48.562;14.440;2022-10-16T04:13:23;11.50;99.90
41592;DHT22;28026;48.562;14.440;2022-10-16T04:15:53;11.50;99.90
41592;DHT22;28026;48.562;14.440;2022-10-16T04:18:24;11.40;99.90
41592;DHT22;28026;48.562;14.440;2022-10-16T04:21:03;11.40;99.90
41592;DHT22;28026;48.562;14.440;2022-10-16T04:23:36;11.40;99.90
41592;DHT22;28026;48.562;14.440;2022-10-16T04:26:07;11.40;99.90
41592;DHT22;28026;48.562;14.440;2022-10-16T04:28:38;11.30;99.90
41592;DHT22;28026;48.562;14.440;2022-10-16T04:31:08;11.30;99.90
41592;DHT22;28026;48.562;14.440;2022-10-16T04:33:42;11.30;99.90
41592;DHT22;28026;48.562;14.440;2022-10-16T04:36:14;11.30;99.90
41592;DHT22;28026;48.562;14.440;2022-10-16T04:38:44;11.30;99.90
41592;DHT22;28026;48.562;14.440;2022-10-16T04:41:15;11.30;99.90
41592;DHT22;28026;48.562;14.440;2022-10-16T04:43:46;11.20;99.90
41592;DHT22;28026;48.562;14.440;2022-10-16T04:46:17;11.30;99.90
41592;DHT22;28026;48.562;14.440;2022-10-16T04:48:48;11.20;99.90
41592;DHT22;28026;48.562;14.440;2022-10-16T04:51:19;11.20;99.90
41592;DHT22;28026;48.562;14.440;2022-10-16T04:53:50;11.20;99.90
41592;DHT22;28026;48.562;14.440;2022-10-16T04:56:21;11.20;99.90
41592;DHT22;28026;48.562;14.440;2022-10-16T04:58:53;11.20;99.90
41592;DHT22;28026;48.562;14.440;2022-10-16T05:01:24;11.30;99.90
41592;DHT22;28026;48.562;14.440;2022-10-16T05:03:55;11.30;99.90
41592;DHT22;28026;48.562;14.440;2022-10-16T05:06:25;11.30;99.90
41592;DHT22;28026;48.562;14.440;2022-10-16T05:08:56;11.30;99.90
41592;DHT22;28026;48.562;14.440;2022-10-16T05:11:27;11.30;99.90
41592;DHT22;28026;48.562;14.440;2022-10-16T05:13:58;11.30;99.90
41592;DHT22;28026;48.562;14.440;2022-10-16T05:16:30;11.30;99.90
41592;DHT22;28026;48.562;14.440;2022-10-16T05:19:01;11.30;99.90
41592;DHT22;28026;48.562;14.440;2022-10-16T05:21:32;11.30;99.90
41592;DHT22;28026;48.562;14.440;2022-10-16T05:24:03;11.30;99.90
41592;DHT22;28026;48.562;14.440;2022-10-16T05:26:34;11.40;99.90
41592;DHT22;28026;48.562;14.440;2022-10-16T05:29:05;11.30;99.90
41592;DHT22;28026;48.562;14.440;2022-10-16T05:31:36;11.30;99.90
41592;DHT22;28026;48.562;14.440;2022-10-16T05:34:07;11.40;99.90
41592;DHT22;28026;48.562;14.440;2022-10-16T05:36:38;11.50;99.90
41592;DHT22;28026;48.562;14.440;2022-10-16T05:39:08;11.40;99.90
41592;DHT22;28026;48.562;14.440;2022-10-16T05:41:39;11.50;99.90
41592;DHT22;28026;48.562;14.440;2022-10-16T05:44:10;11.50;99.90
41592;DHT22;28026;48.562;14.440;2022-10-16T05:46:41;11.50;99.90
41592;DHT22;28026;48.562;14.440;2022-10-16T05:49:12;11.60;99.90
41592;DHT22;28026;48.562;14.440;2022-10-16T05:51:43;11.60;99.90
41592;DHT22;28026;48.562;14.440;2022-10-16T05:54:14;11.70;99.90
41592;DHT22;28026;48.562;14.440;2022-10-16T05:56:46;11.70;99.90
41592;DHT22;28026;48.562;14.440;2022-10-16T05:59:16;11.70;99.90
41592;DHT22;28026;48.562;14.440;2022-10-16T06:01:47;11.70;99.90
41592;DHT22;28026;48.562;14.440;2022-10-16T06:04:18;11.80;99.90
41592;DHT22;28026;48.562;14.440;2022-10-16T06:06:49;11.90;99.90
41592;DHT22;28026;48.562;14.440;2022-10-16T06:09:20;12.00;99.90
41592;DHT22;28026;48.562;14.440;2022-10-16T06:11:51;12.00;99.90
41592;DHT22;28026;48.562;14.440;2022-10-16T06:14:22;11.90;99.90
41592;DHT22;28026;48.562;14.440;2022-10-16T06:16:53;11.90;99.90
41592;DHT22;28026;48.562;14.440;2022-10-16T06:19:24;11.90;99.90
41592;DHT22;28026;48.562;14.440;2022-10-16T06:21:54;12.00;99.90
41592;DHT22;28026;48.562;14.440;2022-10-16T06:24:28;12.20;99.90
41592;DHT22;28026;48.562;14.440;2022-10-16T06:26:59;12.30;99.90
41592;DHT22;28026;48.562;14.440;2022-10-16T06:29:30;12.50;99.90
41592;DHT22;28026;48.562;14.440;2022-10-16T06:32:00;12.70;99.90
41592;DHT22;28026;48.562;14.440;2022-10-16T06:34:31;12.90;99.90
41592;DHT22;28026;48.562;14.440;2022-10-16T06:37:02;13.10;99.90
41592;DHT22;28026;48.562;14.440;2022-10-16T06:39:33;13.20;99.90
41592;DHT22;28026;48.562;14.440;2022-10-16T06:42:04;13.10;99.90
41592;DHT22;28026;48.562;14.440;2022-10-16T06:44:35;13.30;99.90
41592;DHT22;28026;48.562;14.440;2022-10-16T06:47:06;13.50;99.90
41592;DHT22;28026;48.562;14.440;2022-10-16T06:49:37;14.00;99.90
41592;DHT22;28026;48.562;14.440;2022-10-16T06:52:08;14.10;99.90
41592;DHT22;28026;48.562;14.440;2022-10-16T06:54:39;14.40;99.90
41592;DHT22;28026;48.562;14.440;2022-10-16T06:57:10;14.20;99.90
41592;DHT22;28026;48.562;14.440;2022-10-16T06:59:40;14.30;99.90
41592;DHT22;28026;48.562;14.440;2022-10-16T07:02:11;14.40;99.90
41592;DHT22;28026;48.562;14.440;2022-10-16T07:04:42;14.30;99.90
41592;DHT22;28026;48.562;14.440;2022-10-16T07:07:13;14.40;99.90
41592;DHT22;28026;48.562;14.440;2022-10-16T07:09:44;14.60;99.90
41592;DHT22;28026;48.562;14.440;2022-10-16T07:12:15;14.80;99.90
41592;DHT22;28026;48.562;14.440;2022-10-16T07:14:46;15.20;99.90
41592;DHT22;28026;48.562;14.440;2022-10-16T07:17:17;15.30;99.90
41592;DHT22;28026;48.562;14.440;2022-10-16T07:19:48;14.90;99.90
41592;DHT22;28026;48.562;14.440;2022-10-16T07:22:19;14.90;99.90
41592;DHT22;28026;48.562;14.440;2022-10-16T07:24:50;14.60;99.90
41592;DHT22;28026;48.562;14.440;2022-10-16T07:27:22;14.50;99.90
41592;DHT22;28026;48.562;14.440;2022-10-16T07:29:54;14.60;99.90
41592;DHT22;28026;48.562;14.440;2022-10-16T07:32:25;14.60;99.90
41592;DHT22;28026;48.562;14.440;2022-10-16T07:34:56;14.40;99.90
41592;DHT22;28026;48.562;14.440;2022-10-16T07:37:26;14.40;99.90
41592;DHT22;28026;48.562;14.440;2022-10-16T07:39:57;14.60;99.90
41592;DHT22;28026;48.562;14.440;2022-10-16T07:42:28;14.80;99.90
41592;DHT22;28026;48.562;14.440;2022-10-16T07:44:59;14.90;99.90
41592;DHT22;28026;48.562;14.440;2022-10-16T07:47:30;14.80;99.90
41592;DHT22;28026;48.562;14.440;2022-10-16T07:50:01;14.60;99.90
41592;DHT22;28026;48.562;14.440;2022-10-16T07:52:32;14.70;99.90
41592;DHT22;28026;48.562;14.440;2022-10-16T07:55:03;14.80;99.90
41592;DHT22;28026;48.562;14.440;2022-10-16T07:57:35;14.90;99.90
41592;DHT22;28026;48.562;14.440;2022-10-16T08:00:06;14.90;99.90
41592;DHT22;28026;48.562;14.440;2022-10-16T08:02:43;14.90;99.90
41592;DHT22;28026;48.562;14.440;2022-10-16T08:05:14;15.00;99.90
41592;DHT22;28026;48.562;14.440;2022-10-16T08:07:49;15.10;99.90
41592;DHT22;28026;48.562;14.440;2022-10-16T08:10:22;15.20;99.90
41592;DHT22;28026;48.562;14.440;2022-10-16T08:12:56;15.10;99.90
41592;DHT22;28026;48.562;14.440;2022-10-16T08:15:28;14.90;99.90
41592;DHT22;28026;48.562;14.440;2022-10-16T08:18:01;14.90;99.90
41592;DHT22;28026;48.562;14.440;2022-10-16T08:20:34;15.10;99.90
41592;DHT22;28026;48.562;14.440;2022-10-16T08:23:05;15.30;99.90
41592;DHT22;28026;48.562;14.440;2022-10-16T08:25:37;15.60;99.90
41592;DHT22;28026;48.562;14.440;2022-10-16T08:28:10;15.70;99.90
41592;DHT22;28026;48.562;14.440;2022-10-16T08:30:41;15.80;99.90
41592;DHT22;28026;48.562;14.440;2022-10-16T08:33:12;16.00;99.90
41592;DHT22;28026;48.562;14.440;2022-10-16T08:35:51;15.70;99.90
41592;DHT22;28026;48.562;14.440;2022-10-16T08:38:23;15.50;99.90
41592;DHT22;28026;48.562;14.440;2022-10-16T08:41:02;15.60;99.90
41592;DHT22;28026;48.562;14.440;2022-10-16T08:47:16;16.10;99.90
41592;DHT22;28026;48.562;14.440;2022-10-16T08:49:59;16.90;99.90
41592;DHT22;28026;48.562;14.440;2022-10-16T08:52:43;17.10;99.90
41592;DHT22;28026;48.562;14.440;2022-10-16T08:58:19;17.70;99.90
41592;DHT22;28026;48.562;14.440;2022-10-16T09:01:11;17.90;99.90
41592;DHT22;28026;48.562;14.440;2022-10-16T09:08:11;18.30;99.90
41592;DHT22;28026;48.562;14.440;2022-10-16T09:13:32;18.30;99.90
41592;DHT22;28026;48.562;14.440;2022-10-16T09:16:36;18.90;99.90
41592;DHT22;28026;48.562;14.440;2022-10-16T09:19:24;19.00;99.90
41592;DHT22;28026;48.562;14.440;2022-10-16T09:22:13;18.70;99.90
41592;DHT22;28026;48.562;14.440;2022-10-16T09:24:47;18.90;99.90
41592;DHT22;28026;48.562;14.440;2022-10-16T09:27:18;19.40;99.90
41592;DHT22;28026;48.562;14.440;2022-10-16T09:29:50;19.50;99.90
41592;DHT22;28026;48.562;14.440;2022-10-16T09:32:22;19.60;99.90
41592;DHT22;28026;48.562;14.440;2022-10-16T09:34:55;19.20;99.90
41592;DHT22;28026;48.562;14.440;2022-10-16T09:37:28;18.90;99.90
41592;DHT22;28026;48.562;14.440;2022-10-16T09:39:59;18.90;99.90
41592;DHT22;28026;48.562;14.440;2022-10-16T09:42:35;18.90;99.90
41592;DHT22;28026;48.562;14.440;2022-10-16T09:45:23;18.70;99.90
41592;DHT22;28026;48.562;14.440;2022-10-16T09:47:54;18.60;99.90
41592;DHT22;28026;48.562;14.440;2022-10-16T09:50:27;18.70;99.90
41592;DHT22;28026;48.562;14.440;2022-10-16T09:53:07;18.80;99.90
41592;DHT22;28026;48.562;14.440;2022-10-16T09:55:52;18.90;99.90
41592;DHT22;28026;48.562;14.440;2022-10-16T09:58:24;19.00;99.90
41592;DHT22;28026;48.562;14.440;2022-10-16T10:00:55;19.10;99.90
41592;DHT22;28026;48.562;14.440;2022-10-16T10:03:38;19.10;99.90
41592;DHT22;28026;48.562;14.440;2022-10-16T10:06:49;19.40;99.90
41592;DHT22;28026;48.562;14.440;2022-10-16T10:09:30;19.60;99.90
41592;DHT22;28026;48.562;14.440;2022-10-16T10:12:26;19.70;99.90
41592;DHT22;28026;48.562;14.440;2022-10-16T10:15:10;20.10;99.90
41592;DHT22;28026;48.562;14.440;2022-10-16T10:17:52;19.70;99.90
41592;DHT22;28026;48.562;14.440;2022-10-16T10:20:32;19.70;99.90
41592;DHT22;28026;48.562;14.440;2022-10-16T10:23:23;19.30;99.90
41592;DHT22;28026;48.562;14.440;2022-10-16T10:26:07;19.70;99.90
41592;DHT22;28026;48.562;14.440;2022-10-16T10:29:23;20.00;99.90
41592;DHT22;28026;48.562;14.440;2022-10-16T10:38:25;20.50;99.90
41592;DHT22;28026;48.562;14.440;2022-10-16T10:45:28;21.00;99.90
41592;DHT22;28026;48.562;14.440;2022-10-16T10:51:53;21.00;99.90
41592;DHT22;28026;48.562;14.440;2022-10-16T10:55:03;21.20;99.90
41592;DHT22;28026;48.562;14.440;2022-10-16T11:01:09;21.40;99.90
41592;DHT22;28026;48.562;14.440;2022-10-16T11:08:00;21.40;99.90
41592;DHT22;28026;48.562;14.440;2022-10-16T11:14:02;22.10;99.90
41592;DHT22;28026;48.562;14.440;2022-10-16T11:19:48;22.20;99.90
41592;DHT22;28026;48.562;14.440;2022-10-16T11:25:33;21.40;99.90
41592;DHT22;28026;48.562;14.440;2022-10-16T11:28:40;22.20;99.90
41592;DHT22;28026;48.562;14.440;2022-10-16T11:31:43;21.70;99.90
41592;DHT22;28026;48.562;14.440;2022-10-16T11:34:22;22.40;99.90
41592;DHT22;28026;48.562;14.440;2022-10-16T11:37:40;22.80;99.90
41592;DHT22;28026;48.562;14.440;2022-10-16T11:40:31;22.70;99.90
41592;DHT22;28026;48.562;14.440;2022-10-16T11:43:15;22.70;99.90
41592;DHT22;28026;48.562;14.440;2022-10-16T11:45:58;23.10;99.90
41592;DHT22;28026;48.562;14.440;2022-10-16T11:48:54;23.40;99.90
41592;DHT22;28026;48.562;14.440;2022-10-16T11:57:33;23.10;99.90
41592;DHT22;28026;48.562;14.440;2022-10-16T12:00:24;23.10;99.90
41592;DHT22;28026;48.562;14.440;2022-10-16T12:03:28;23.00;99.90
41592;DHT22;28026;48.562;14.440;2022-10-16T12:07:04;23.40;99.90
41592;DHT22;28026;48.562;14.440;2022-10-16T12:09:42;23.80;99.90
41592;DHT22;28026;48.562;14.440;2022-10-16T12:17:57;23.90;99.90
41592;DHT22;28026;48.562;14.440;2022-10-16T12:20:31;23.40;99.90
41592;DHT22;28026;48.562;14.440;2022-10-16T12:23:05;23.00;99.90
41592;DHT22;28026;48.562;14.440;2022-10-16T12:25:39;22.70;99.90
41592;DHT22;28026;48.562;14.440;2022-10-16T12:28:27;23.10;99.90
41592;DHT22;28026;48.562;14.440;2022-10-16T12:31:06;23.20;99.90
41592;DHT22;28026;48.562;14.440;2022-10-16T12:33:59;23.00;99.90
41592;DHT22;28026;48.562;14.440;2022-10-16T12:36:34;23.40;99.90
41592;DHT22;28026;48.562;14.440;2022-10-16T12:39:05;23.50;99.90
41592;DHT22;28026;48.562;14.440;2022-10-16T12:42:03;23.90;99.90
41592;DHT22;28026;48.562;14.440;2022-10-16T12:44:57;24.30;99.90
41592;DHT22;28026;48.562;14.440;2022-10-16T12:50:02;24.60;99.90
41592;DHT22;28026;48.562;14.440;2022-10-16T12:52:38;24.30;99.90
41592;DHT22;28026;48.562;14.440;2022-10-16T12:55:16;24.80;99.90
41592;DHT22;28026;48.562;14.440;2022-10-16T13:05:10;24.70;99.90
41592;DHT22;28026;48.562;14.440;2022-10-16T13:18:23;24.10;99.90
41592;DHT22;28026;48.562;14.440;2022-10-16T13:21:42;24.40;99.90
41592;DHT22;28026;48.562;14.440;2022-10-16T13:25:05;24.50;99.90
41592;DHT22;28026;48.562;14.440;2022-10-16T13:28:13;24.70;99.90
41592;DHT22;28026;48.562;14.440;2022-10-16T13:30:54;24.40;99.90
41592;DHT22;28026;48.562;14.440;2022-10-16T13:33:38;24.10;99.90
41592;DHT22;28026;48.562;14.440;2022-10-16T13:36:22;24.10;99.90
41592;DHT22;28026;48.562;14.440;2022-10-16T13:39:14;24.30;99.90
41592;DHT22;28026;48.562;14.440;2022-10-16T13:44:54;25.20;99.90
41592;DHT22;28026;48.562;14.440;2022-10-16T13:47:28;25.10;99.90
41592;DHT22;28026;48.562;14.440;2022-10-16T13:50:19;24.60;99.90
41592;DHT22;28026;48.562;14.440;2022-10-16T13:52:50;24.20;99.90
41592;DHT22;28026;48.562;14.440;2022-10-16T13:55:21;24.10;99.90
41592;DHT22;28026;48.562;14.440;2022-10-16T13:57:52;24.20;99.90
41592;DHT22;28026;48.562;14.440;2022-10-16T14:00:25;24.50;99.90
41592;DHT22;28026;48.562;14.440;2022-10-16T14:03:07;24.70;99.90
41592;DHT22;28026;48.562;14.440;2022-10-16T14:05:51;24.70;99.90
41592;DHT22;28026;48.562;14.440;2022-10-16T14:08:27;24.10;99.90
41592;DHT22;28026;48.562;14.440;2022-10-16T14:11:01;24.10;99.90
41592;DHT22;28026;48.562;14.440;2022-10-16T14:13:53;24.40;99.90
41592;DHT22;28026;48.562;14.440;2022-10-16T14:16:28;24.30;99.90
41592;DHT22;28026;48.562;14.440;2022-10-16T14:19:04;23.90;99.90
41592;DHT22;28026;48.562;14.440;2022-10-16T14:21:37;24.00;99.90
41592;DHT22;28026;48.562;14.440;2022-10-16T14:24:26;24.30;99.90
41592;DHT22;28026;48.562;14.440;2022-10-16T14:27:02;24.50;99.90
41592;DHT22;28026;48.562;14.440;2022-10-16T14:30:12;24.10;99.90
41592;DHT22;28026;48.562;14.440;2022-10-16T14:33:06;24.20;99.90
41592;DHT22;28026;48.562;14.440;2022-10-16T14:36:02;24.20;99.90
41592;DHT22;28026;48.562;14.440;2022-10-16T14:38:49;24.70;99.90
41592;DHT22;28026;48.562;14.440;2022-10-16T14:41:41;24.80;99.90
41592;DHT22;28026;48.562;14.440;2022-10-16T14:44:26;24.60;99.90
41592;DHT22;28026;48.562;14.440;2022-10-16T14:47:13;24.70;99.90
41592;DHT22;28026;48.562;14.440;2022-10-16T14:49:54;24.70;99.90
41592;DHT22;28026;48.562;14.440;2022-10-16T14:52:26;23.00;99.90
41592;DHT22;28026;48.562;14.440;2022-10-16T14:54:57;21.10;99.90
41592;DHT22;28026;48.562;14.440;2022-10-16T14:57:31;20.20;99.90
41592;DHT22;28026;48.562;14.440;2022-10-16T15:00:28;19.80;99.90
41592;DHT22;28026;48.562;14.440;2022-10-16T15:02:59;19.50;99.90
41592;DHT22;28026;48.562;14.440;2022-10-16T15:05:30;19.20;99.90
41592;DHT22;28026;48.562;14.440;2022-10-16T15:08:02;19.10;99.90
41592;DHT22;28026;48.562;14.440;2022-10-16T15:10:39;18.90;99.90
41592;DHT22;28026;48.562;14.440;2022-10-16T15:13:14;18.70;99.90
41592;DHT22;28026;48.562;14.440;2022-10-16T15:15:46;18.70;99.90
41592;DHT22;28026;48.562;14.440;2022-10-16T15:18:19;18.70;99.90
41592;DHT22;28026;48.562;14.440;2022-10-16T15:20:51;18.70;99.90
41592;DHT22;28026;48.562;14.440;2022-10-16T15:23:22;18.80;99.90
41592;DHT22;28026;48.562;14.440;2022-10-16T15:25:55;19.20;99.90
41592;DHT22;28026;48.562;14.440;2022-10-16T15:28:27;19.50;99.90
41592;DHT22;28026;48.562;14.440;2022-10-16T15:30:58;19.80;99.90
41592;DHT22;28026;48.562;14.440;2022-10-16T15:33:29;20.00;99.90
41592;DHT22;28026;48.562;14.440;2022-10-16T15:36:05;20.00;99.90
41592;DHT22;28026;48.562;14.440;2022-10-16T15:38:37;20.20;99.90
41592;DHT22;28026;48.562;14.440;2022-10-16T15:41:08;20.20;99.90
41592;DHT22;28026;48.562;14.440;2022-10-16T15:43:39;20.20;99.90
41592;DHT22;28026;48.562;14.440;2022-10-16T15:46:12;20.00;99.90
41592;DHT22;28026;48.562;14.440;2022-10-16T15:48:50;20.00;99.90
41592;DHT22;28026;48.562;14.440;2022-10-16T15:51:27;19.90;99.90
41592;DHT22;28026;48.562;14.440;2022-10-16T15:53:59;20.00;99.90
41592;DHT22;28026;48.562;14.440;2022-10-16T15:56:32;19.90;99.90
41592;DHT22;28026;48.562;14.440;2022-10-16T15:59:04;19.70;99.90
41592;DHT22;28026;48.562;14.440;2022-10-16T16:01:36;19.70;99.90
41592;DHT22;28026;48.562;14.440;2022-10-16T16:04:07;19.50;99.90
41592;DHT22;28026;48.562;14.440;2022-10-16T16:06:37;19.50;99.90
41592;DHT22;28026;48.562;14.440;2022-10-16T16:09:13;19.50;99.90
41592;DHT22;28026;48.562;14.440;2022-10-16T16:11:45;19.40;99.90
41592;DHT22;28026;48.562;14.440;2022-10-16T16:14:16;19.40;99.90
41592;DHT22;28026;48.562;14.440;2022-10-16T16:16:47;19.40;99.90
41592;DHT22;28026;48.562;14.440;2022-10-16T16:19:18;19.40;99.90
41592;DHT22;28026;48.562;14.440;2022-10-16T16:21:51;19.40;99.90
41592;DHT22;28026;48.562;14.440;2022-10-16T16:24:22;19.50;99.90
41592;DHT22;28026;48.562;14.440;2022-10-16T16:26:53;19.40;99.90
41592;DHT22;28026;48.562;14.440;2022-10-16T16:29:23;19.20;99.90
41592;DHT22;28026;48.562;14.440;2022-10-16T16:31:54;19.20;99.90
41592;DHT22;28026;48.562;14.440;2022-10-16T16:34:28;19.10;99.90
41592;DHT22;28026;48.562;14.440;2022-10-16T16:36:59;19.10;99.90
41592;DHT22;28026;48.562;14.440;2022-10-16T16:39:30;19.10;99.90
41592;DHT22;28026;48.562;14.440;2022-10-16T16:42:01;19.00;99.90
41592;DHT22;28026;48.562;14.440;2022-10-16T16:44:34;18.90;99.90
41592;DHT22;28026;48.562;14.440;2022-10-16T16:47:06;18.90;99.90
41592;DHT22;28026;48.562;14.440;2022-10-16T16:49:37;18.80;99.90
41592;DHT22;28026;48.562;14.440;2022-10-16T16:52:08;18.80;99.90
41592;DHT22;28026;48.562;14.440;2022-10-16T16:54:39;18.70;99.90
41592;DHT22;28026;48.562;14.440;2022-10-16T16:57:10;18.60;99.90
41592;DHT22;28026;48.562;14.440;2022-10-16T16:59:41;18.50;99.90
41592;DHT22;28026;48.562;14.440;2022-10-16T17:02:11;18.40;99.90
41592;DHT22;28026;48.562;14.440;2022-10-16T17:04:43;18.40;99.90
41592;DHT22;28026;48.562;14.440;2022-10-16T17:07:13;18.30;99.90
41592;DHT22;28026;48.562;14.440;2022-10-16T17:09:44;18.20;99.90
41592;DHT22;28026;48.562;14.440;2022-10-16T17:12:15;18.20;99.90
41592;DHT22;28026;48.562;14.440;2022-10-16T17:14:46;18.20;99.90
41592;DHT22;28026;48.562;14.440;2022-10-16T17:17:17;18.20;99.90
41592;DHT22;28026;48.562;14.440;2022-10-16T17:19:51;18.10;99.90
41592;DHT22;28026;48.562;14.440;2022-10-16T17:22:22;18.00;99.90
41592;DHT22;28026;48.562;14.440;2022-10-16T17:24:54;18.00;99.90
41592;DHT22;28026;48.562;14.440;2022-10-16T17:27:25;18.00;99.90
41592;DHT22;28026;48.562;14.440;2022-10-16T17:29:55;17.90;99.90
41592;DHT22;28026;48.562;14.440;2022-10-16T17:32:26;17.80;99.90
41592;DHT22;28026;48.562;14.440;2022-10-16T17:34:57;17.90;99.90
41592;DHT22;28026;48.562;14.440;2022-10-16T17:37:28;17.90;99.90
41592;DHT22;28026;48.562;14.440;2022-10-16T17:39:59;17.80;99.90
41592;DHT22;28026;48.562;14.440;2022-10-16T17:42:30;17.70;99.90
41592;DHT22;28026;48.562;14.440;2022-10-16T17:45:01;17.70;99.90
41592;DHT22;28026;48.562;14.440;2022-10-16T17:47:32;17.70;99.90
41592;DHT22;28026;48.562;14.440;2022-10-16T17:50:03;17.70;99.90